KDEN/DEN METAR and TAF weather

Enter ICAO airport designator
Station Type Date Time Source
KDEN METAR 2020/09/19 16:53 UTC NOAA

KDEN 191653Z 21007KT 10SM SCT150 BKN220 27/00 A3009 RMK AO2 SLP105 T02720000


Station Type Date Time Source
KDEN Decoded METAR 2020/09/19 16:53 UTC NOAA

DENVER INTERNATIONAL AIRPORT, CO, United States (KDEN) 39-52N 104-40W 1640M
Sep 19, 2020 - 12:53 PM EDT / 2020.09.19 1653 UTC
Wind: from the SSW (210 degrees) at 8 MPH (7 KT):0
Visibility: 10 mile(s):0
Sky conditions: mostly cloudy
Temperature: 81.0 F (27.2 C)
Dew Point: 32.0 F (0.0 C)
Relative Humidity: 16%
Pressure (altimeter): 30.09 in. Hg (1018 hPa)
ob: KDEN 191653Z 21007KT 10SM SCT150 BKN220 27/00 A3009 RMK AO2 SLP105 T02720000
cycle: 17

Station Type Date Time Source
KDEN TAF 2020/09/19 18:34 UTC NOAA

TAF KDEN 191732Z 1918/2024 23008KT P6SM FEW140 BKN220
FM191900 VRB06KT P6SM FEW140 BKN220
FM192200 30010KT P6SM SCT100 BKN150
TEMPO 1922/2001 32015G25KT
FM200100 23008KT P6SM SCT100 BKN150
FM200900 20008KT P6SM SCT150 SCT220
FM201700 VRB06KT P6SM SCT150 SCT220
FM202000 35010KT P6SM SCT150 BKN220

Example: see airport list